Hauptseite
METAR-TAF:

METAR-TAF

Flughäfen :

Flughafen Trapani

Trapani, Italien

Breite: 37-55N, Länge: 012-30E, Höhe: 7 m

Beobachtung

Neuester Wetterbericht von vor 1 Stunde und 2 Minuten, um 13:55 UTC
Wind 17 kt aus Südost
Temperatur 24°C
Luftfeuchtigkeit 78%
Luftdruck 1015 hPa
Sichtweite 10 km oder mehr
Leicht bewölkt in der Höhe von 2000 ft, Towering cumulus.
Aufgelockert bewölkt in der Höhe von 2500 ft

METAR: LICT 161355Z 14017KT 9999 FEW020TCU SCT025 24/20 Q1015 RMK BKN BKN200 VIS MIN 9999 WIND THR13 13015KT BLU

Zeit: 16:57 (14:57 UTC)

Prognose

Neuester Wetterbericht von vor 57 Minuten, um 14:00 UTC
Gültige Prognose vom 16 um 15 UTC bis 16 um 24 UTC
Wind 12 kt aus Südost
Sichtweite 10 km oder mehr
Aufgelockert bewölkt in der Höhe von 2500 ft

TAF: LICT 161400Z 1615/1624 14012KT 9999 SCT025

Wetterbeobachtungen und Prognosen von mehr als 4000 Flughäfen (METAR und TAF Bericht).

Die verfügbaren Stationen werden durch gelbe und rote Markierungen auf der Karte dargestellt.

Führen Sie die Maus auf sie, um den Namen der Station zu sehen.

Darauf klicken, um die Beobachtung von Wetterbeobachtungen und Prognosen zu sehen.

Um die Karte zu ändern : klicken Sie auf den grünen Tasten mit einem schwarzen Kreuz Zum Vergrößern, auf den grünen Button mit einem Gedankenstrich zu verkleinern, oder auf die grünen Pfeile für benachbarte Karten.


METAR-TAF: